sensor_id;sensor_type;location;lat;lon;timestamp;P1;durP1;ratioP1;P2;durP2;ratioP2
7699;SDS011;3892;47.794;19.126;2023-06-22T00:01:19;6.90;;;4.60;;
7699;SDS011;3892;47.794;19.126;2023-06-22T00:03:50;9.10;;;4.30;;
7699;SDS011;3892;47.794;19.126;2023-06-22T00:06:18;9.90;;;4.73;;
7699;SDS011;3892;47.794;19.126;2023-06-22T00:08:46;5.10;;;4.07;;
7699;SDS011;3892;47.794;19.126;2023-06-22T00:11:15;8.13;;;4.50;;
7699;SDS011;3892;47.794;19.126;2023-06-22T00:13:43;6.77;;;4.17;;
7699;SDS011;3892;47.794;19.126;2023-06-22T00:16:11;7.87;;;4.77;;
7699;SDS011;3892;47.794;19.126;2023-06-22T00:18:39;9.30;;;4.53;;
7699;SDS011;3892;47.794;19.126;2023-06-22T00:21:14;7.43;;;4.30;;
7699;SDS011;3892;47.794;19.126;2023-06-22T00:23:42;8.13;;;4.27;;
7699;SDS011;3892;47.794;19.126;2023-06-22T00:26:10;10.53;;;4.37;;
7699;SDS011;3892;47.794;19.126;2023-06-22T00:28:38;9.57;;;4.60;;
7699;SDS011;3892;47.794;19.126;2023-06-22T00:31:07;8.70;;;4.60;;
7699;SDS011;3892;47.794;19.126;2023-06-22T00:33:35;6.30;;;4.57;;
7699;SDS011;3892;47.794;19.126;2023-06-22T00:36:03;7.70;;;4.60;;
7699;SDS011;3892;47.794;19.126;2023-06-22T00:38:34;10.27;;;4.90;;
7699;SDS011;3892;47.794;19.126;2023-06-22T00:41:06;9.53;;;4.57;;
7699;SDS011;3892;47.794;19.126;2023-06-22T00:43:34;7.80;;;4.80;;
7699;SDS011;3892;47.794;19.126;2023-06-22T00:46:02;8.63;;;4.50;;
7699;SDS011;3892;47.794;19.126;2023-06-22T00:48:30;8.20;;;4.90;;
7699;SDS011;3892;47.794;19.126;2023-06-22T00:50:58;9.63;;;5.30;;
7699;SDS011;3892;47.794;19.126;2023-06-22T00:53:27;9.13;;;4.70;;
7699;SDS011;3892;47.794;19.126;2023-06-22T00:55:56;9.97;;;5.20;;
7699;SDS011;3892;47.794;19.126;2023-06-22T00:58:26;7.80;;;4.60;;
7699;SDS011;3892;47.794;19.126;2023-06-22T01:00:54;10.73;;;4.90;;
7699;SDS011;3892;47.794;19.126;2023-06-22T01:03:22;7.90;;;4.73;;
7699;SDS011;3892;47.794;19.126;2023-06-22T01:05:50;7.70;;;4.13;;
7699;SDS011;3892;47.794;19.126;2023-06-22T01:08:23;7.43;;;4.20;;
7699;SDS011;3892;47.794;19.126;2023-06-22T01:11:00;10.13;;;5.10;;
7699;SDS011;3892;47.794;19.126;2023-06-22T01:13:35;10.87;;;5.30;;
7699;SDS011;3892;47.794;19.126;2023-06-22T01:16:20;8.27;;;4.67;;
7699;SDS011;3892;47.794;19.126;2023-06-22T01:18:52;9.27;;;4.80;;
7699;SDS011;3892;47.794;19.126;2023-06-22T01:21:27;7.90;;;4.70;;
7699;SDS011;3892;47.794;19.126;2023-06-22T01:24:01;9.20;;;4.53;;
7699;SDS011;3892;47.794;19.126;2023-06-22T01:26:43;7.03;;;5.00;;
7699;SDS011;3892;47.794;19.126;2023-06-22T01:29:22;9.57;;;4.80;;
7699;SDS011;3892;47.794;19.126;2023-06-22T01:31:53;9.10;;;4.80;;
7699;SDS011;3892;47.794;19.126;2023-06-22T01:34:23;11.17;;;4.87;;
7699;SDS011;3892;47.794;19.126;2023-06-22T01:36:52;9.17;;;5.13;;
7699;SDS011;3892;47.794;19.126;2023-06-22T01:39:20;11.33;;;4.43;;
7699;SDS011;3892;47.794;19.126;2023-06-22T01:41:49;9.33;;;4.73;;
7699;SDS011;3892;47.794;19.126;2023-06-22T01:44:19;11.10;;;5.00;;
7699;SDS011;3892;47.794;19.126;2023-06-22T01:46:49;12.20;;;5.47;;
7699;SDS011;3892;47.794;19.126;2023-06-22T01:49:19;8.00;;;4.97;;
7699;SDS011;3892;47.794;19.126;2023-06-22T01:51:47;9.90;;;4.73;;
7699;SDS011;3892;47.794;19.126;2023-06-22T01:54:16;9.07;;;5.77;;
7699;SDS011;3892;47.794;19.126;2023-06-22T01:56:44;14.73;;;6.00;;
7699;SDS011;3892;47.794;19.126;2023-06-22T01:59:14;9.67;;;5.37;;
7699;SDS011;3892;47.794;19.126;2023-06-22T02:01:50;11.80;;;5.93;;
7699;SDS011;3892;47.794;19.126;2023-06-22T02:04:23;10.13;;;6.50;;
7699;SDS011;3892;47.794;19.126;2023-06-22T02:06:55;10.23;;;5.50;;
7699;SDS011;3892;47.794;19.126;2023-06-22T02:09:28;8.90;;;5.30;;
7699;SDS011;3892;47.794;19.126;2023-06-22T02:11:57;10.50;;;5.40;;
7699;SDS011;3892;47.794;19.126;2023-06-22T02:14:27;9.30;;;6.33;;
7699;SDS011;3892;47.794;19.126;2023-06-22T02:16:57;12.43;;;5.23;;
7699;SDS011;3892;47.794;19.126;2023-06-22T02:19:26;6.97;;;5.30;;
7699;SDS011;3892;47.794;19.126;2023-06-22T02:21:59;6.90;;;5.47;;
7699;SDS011;3892;47.794;19.126;2023-06-22T02:24:27;9.57;;;5.30;;
7699;SDS011;3892;47.794;19.126;2023-06-22T02:26:57;8.83;;;5.67;;
7699;SDS011;3892;47.794;19.126;2023-06-22T02:29:26;9.27;;;5.50;;
7699;SDS011;3892;47.794;19.126;2023-06-22T02:31:54;9.43;;;5.27;;
7699;SDS011;3892;47.794;19.126;2023-06-22T02:34:24;11.90;;;5.17;;
7699;SDS011;3892;47.794;19.126;2023-06-22T02:36:52;7.30;;;5.03;;
7699;SDS011;3892;47.794;19.126;2023-06-22T02:39:21;12.47;;;5.63;;
7699;SDS011;3892;47.794;19.126;2023-06-22T02:41:50;10.77;;;5.53;;
7699;SDS011;3892;47.794;19.126;2023-06-22T02:44:19;8.63;;;5.07;;
7699;SDS011;3892;47.794;19.126;2023-06-22T02:46:48;10.63;;;5.57;;
7699;SDS011;3892;47.794;19.126;2023-06-22T02:49:16;10.17;;;5.57;;
7699;SDS011;3892;47.794;19.126;2023-06-22T02:51:48;11.20;;;5.37;;
7699;SDS011;3892;47.794;19.126;2023-06-22T02:54:16;12.63;;;5.87;;
7699;SDS011;3892;47.794;19.126;2023-06-22T02:56:44;10.13;;;5.93;;
7699;SDS011;3892;47.794;19.126;2023-06-22T02:59:14;12.20;;;6.00;;
7699;SDS011;3892;47.794;19.126;2023-06-22T03:01:42;9.83;;;5.30;;
7699;SDS011;3892;47.794;19.126;2023-06-22T03:04:10;13.03;;;5.87;;
7699;SDS011;3892;47.794;19.126;2023-06-22T03:06:38;10.37;;;5.43;;
7699;SDS011;3892;47.794;19.126;2023-06-22T03:09:08;9.13;;;5.40;;
7699;SDS011;3892;47.794;19.126;2023-06-22T03:11:37;11.97;;;5.70;;
7699;SDS011;3892;47.794;19.126;2023-06-22T03:14:05;8.93;;;5.67;;
7699;SDS011;3892;47.794;19.126;2023-06-22T03:16:33;11.70;;;5.70;;
7699;SDS011;3892;47.794;19.126;2023-06-22T03:19:01;11.13;;;5.93;;
7699;SDS011;3892;47.794;19.126;2023-06-22T03:21:30;10.83;;;5.70;;
7699;SDS011;3892;47.794;19.126;2023-06-22T03:23:58;9.13;;;5.17;;
7699;SDS011;3892;47.794;19.126;2023-06-22T03:26:27;12.40;;;5.90;;
7699;SDS011;3892;47.794;19.126;2023-06-22T03:28:56;12.50;;;5.47;;
7699;SDS011;3892;47.794;19.126;2023-06-22T03:31:24;12.10;;;6.00;;
7699;SDS011;3892;47.794;19.126;2023-06-22T03:33:52;14.93;;;5.70;;
7699;SDS011;3892;47.794;19.126;2023-06-22T03:36:21;16.23;;;6.33;;
7699;SDS011;3892;47.794;19.126;2023-06-22T03:38:49;11.70;;;5.10;;
7699;SDS011;3892;47.794;19.126;2023-06-22T03:41:18;12.83;;;5.97;;
7699;SDS011;3892;47.794;19.126;2023-06-22T03:43:48;10.97;;;6.00;;
7699;SDS011;3892;47.794;19.126;2023-06-22T03:46:16;12.27;;;5.93;;
7699;SDS011;3892;47.794;19.126;2023-06-22T03:48:46;14.73;;;6.07;;
7699;SDS011;3892;47.794;19.126;2023-06-22T03:51:14;15.03;;;5.57;;
7699;SDS011;3892;47.794;19.126;2023-06-22T03:53:42;11.87;;;5.93;;
7699;SDS011;3892;47.794;19.126;2023-06-22T03:56:11;15.90;;;5.50;;
7699;SDS011;3892;47.794;19.126;2023-06-22T03:58:39;10.13;;;5.10;;
7699;SDS011;3892;47.794;19.126;2023-06-22T04:01:10;10.37;;;5.40;;
7699;SDS011;3892;47.794;19.126;2023-06-22T04:03:38;14.50;;;6.20;;
7699;SDS011;3892;47.794;19.126;2023-06-22T04:06:08;13.53;;;5.97;;
7699;SDS011;3892;47.794;19.126;2023-06-22T04:08:36;13.90;;;5.90;;
7699;SDS011;3892;47.794;19.126;2023-06-22T04:11:04;11.63;;;5.80;;
7699;SDS011;3892;47.794;19.126;2023-06-22T04:13:32;12.93;;;5.90;;
7699;SDS011;3892;47.794;19.126;2023-06-22T04:16:00;7.30;;;5.13;;
7699;SDS011;3892;47.794;19.126;2023-06-22T04:18:30;9.63;;;5.53;;
7699;SDS011;3892;47.794;19.126;2023-06-22T04:20:58;7.63;;;5.30;;
7699;SDS011;3892;47.794;19.126;2023-06-22T04:23:26;7.70;;;5.10;;
7699;SDS011;3892;47.794;19.126;2023-06-22T04:25:54;10.57;;;5.40;;
7699;SDS011;3892;47.794;19.126;2023-06-22T04:28:24;9.30;;;5.90;;
7699;SDS011;3892;47.794;19.126;2023-06-22T04:30:53;12.10;;;5.27;;
7699;SDS011;3892;47.794;19.126;2023-06-22T04:33:24;11.40;;;5.40;;
7699;SDS011;3892;47.794;19.126;2023-06-22T04:35:53;7.90;;;4.60;;
7699;SDS011;3892;47.794;19.126;2023-06-22T04:38:23;10.87;;;5.40;;
7699;SDS011;3892;47.794;19.126;2023-06-22T04:40:52;7.60;;;5.00;;
7699;SDS011;3892;47.794;19.126;2023-06-22T04:43:20;11.83;;;5.17;;
7699;SDS011;3892;47.794;19.126;2023-06-22T04:45:48;9.77;;;5.10;;
7699;SDS011;3892;47.794;19.126;2023-06-22T04:48:18;10.00;;;5.23;;
7699;SDS011;3892;47.794;19.126;2023-06-22T04:50:46;11.53;;;5.67;;
7699;SDS011;3892;47.794;19.126;2023-06-22T04:53:16;11.50;;;5.70;;
7699;SDS011;3892;47.794;19.126;2023-06-22T04:55:44;9.30;;;5.53;;
7699;SDS011;3892;47.794;19.126;2023-06-22T04:58:15;9.33;;;4.83;;
7699;SDS011;3892;47.794;19.126;2023-06-22T05:00:46;7.47;;;4.80;;
7699;SDS011;3892;47.794;19.126;2023-06-22T05:03:15;8.30;;;4.17;;
7699;SDS011;3892;47.794;19.126;2023-06-22T05:05:45;8.63;;;4.60;;
7699;SDS011;3892;47.794;19.126;2023-06-22T05:08:13;9.40;;;4.30;;
7699;SDS011;3892;47.794;19.126;2023-06-22T05:10:43;8.60;;;4.37;;
7699;SDS011;3892;47.794;19.126;2023-06-22T05:13:20;13.83;;;3.90;;
7699;SDS011;3892;47.794;19.126;2023-06-22T05:15:52;8.50;;;4.60;;
7699;SDS011;3892;47.794;19.126;2023-06-22T05:18:28;16.73;;;4.40;;
7699;SDS011;3892;47.794;19.126;2023-06-22T05:20:57;7.53;;;3.93;;
7699;SDS011;3892;47.794;19.126;2023-06-22T05:23:26;8.50;;;3.97;;
7699;SDS011;3892;47.794;19.126;2023-06-22T05:25:55;9.07;;;3.70;;
7699;SDS011;3892;47.794;19.126;2023-06-22T05:28:24;11.17;;;4.27;;
7699;SDS011;3892;47.794;19.126;2023-06-22T05:30:52;8.23;;;4.37;;
7699;SDS011;3892;47.794;19.126;2023-06-22T05:33:20;10.43;;;4.10;;
7699;SDS011;3892;47.794;19.126;2023-06-22T05:35:48;7.10;;;4.20;;
7699;SDS011;3892;47.794;19.126;2023-06-22T05:38:16;8.53;;;4.30;;
7699;SDS011;3892;47.794;19.126;2023-06-22T05:40:44;6.80;;;4.10;;
7699;SDS011;3892;47.794;19.126;2023-06-22T05:43:15;8.57;;;4.37;;
7699;SDS011;3892;47.794;19.126;2023-06-22T05:45:43;9.80;;;4.60;;
7699;SDS011;3892;47.794;19.126;2023-06-22T05:48:11;9.23;;;4.50;;
7699;SDS011;3892;47.794;19.126;2023-06-22T05:50:39;9.20;;;4.53;;
7699;SDS011;3892;47.794;19.126;2023-06-22T05:53:07;7.00;;;4.07;;
7699;SDS011;3892;47.794;19.126;2023-06-22T05:55:35;8.90;;;4.10;;
7699;SDS011;3892;47.794;19.126;2023-06-22T05:58:04;12.20;;;4.83;;
7699;SDS011;3892;47.794;19.126;2023-06-22T06:00:33;8.57;;;4.10;;
7699;SDS011;3892;47.794;19.126;2023-06-22T06:03:02;8.93;;;4.03;;
7699;SDS011;3892;47.794;19.126;2023-06-22T06:05:30;8.87;;;4.37;;
7699;SDS011;3892;47.794;19.126;2023-06-22T06:07:59;8.67;;;5.03;;
7699;SDS011;3892;47.794;19.126;2023-06-22T06:10:27;8.83;;;4.30;;
7699;SDS011;3892;47.794;19.126;2023-06-22T06:12:56;8.40;;;4.53;;
7699;SDS011;3892;47.794;19.126;2023-06-22T06:15:24;12.40;;;5.33;;
7699;SDS011;3892;47.794;19.126;2023-06-22T06:17:54;11.17;;;4.17;;
7699;SDS011;3892;47.794;19.126;2023-06-22T06:20:22;7.67;;;3.83;;
7699;SDS011;3892;47.794;19.126;2023-06-22T06:22:52;7.23;;;4.03;;
7699;SDS011;3892;47.794;19.126;2023-06-22T06:25:22;12.40;;;4.80;;
7699;SDS011;3892;47.794;19.126;2023-06-22T06:27:51;8.27;;;4.00;;
7699;SDS011;3892;47.794;19.126;2023-06-22T06:30:21;9.47;;;4.07;;
7699;SDS011;3892;47.794;19.126;2023-06-22T06:32:49;6.70;;;4.00;;
7699;SDS011;3892;47.794;19.126;2023-06-22T06:35:19;9.80;;;6.40;;
7699;SDS011;3892;47.794;19.126;2023-06-22T06:37:48;6.97;;;4.37;;
7699;SDS011;3892;47.794;19.126;2023-06-22T06:40:18;8.40;;;4.50;;
7699;SDS011;3892;47.794;19.126;2023-06-22T06:42:46;8.27;;;6.07;;
7699;SDS011;3892;47.794;19.126;2023-06-22T06:45:15;6.50;;;3.80;;
7699;SDS011;3892;47.794;19.126;2023-06-22T06:47:48;7.47;;;3.60;;
7699;SDS011;3892;47.794;19.126;2023-06-22T06:50:18;7.77;;;3.33;;
7699;SDS011;3892;47.794;19.126;2023-06-22T06:52:47;7.37;;;3.47;;
7699;SDS011;3892;47.794;19.126;2023-06-22T06:55:16;10.20;;;4.77;;
7699;SDS011;3892;47.794;19.126;2023-06-22T06:57:46;8.33;;;3.93;;
7699;SDS011;3892;47.794;19.126;2023-06-22T07:00:16;8.53;;;4.07;;
7699;SDS011;3892;47.794;19.126;2023-06-22T07:02:45;9.63;;;4.47;;
7699;SDS011;3892;47.794;19.126;2023-06-22T07:05:15;5.97;;;3.57;;
